createdAt,value
2022-12-14T00:01:20.576Z,97467.69
2022-12-14T00:03:48.297Z,97468.88
2022-12-14T00:06:19.538Z,97474.50
2022-12-14T00:08:48.370Z,97471.13
2022-12-14T00:11:15.967Z,97473.00
2022-12-14T00:13:43.593Z,97476.28
2022-12-14T00:16:13.482Z,97471.91
2022-12-14T00:18:40.802Z,97467.84
2022-12-14T00:21:10.614Z,97468.31
2022-12-14T00:23:39.343Z,97456.19
2022-12-14T00:26:13.649Z,97456.19
2022-12-14T00:28:41.586Z,97459.19
2022-12-14T00:31:08.797Z,97453.78
2022-12-14T00:33:35.794Z,97449.72
2022-12-14T00:36:04.533Z,97451.47
2022-12-14T00:38:31.446Z,97436.44
2022-12-14T00:40:58.304Z,97434.00
2022-12-14T00:43:25.140Z,97420.56
2022-12-14T00:45:52.582Z,97412.31
2022-12-14T00:48:20.424Z,97409.56
2022-12-14T00:50:48.614Z,97413.78
2022-12-14T00:53:16.533Z,97410.56
2022-12-14T00:55:49.000Z,97418.28
2022-12-14T00:58:18.615Z,97421.97
2022-12-14T01:00:46.479Z,97420.75
2022-12-14T01:03:13.552Z,97414.22
2022-12-14T01:05:40.641Z,97389.69
2022-12-14T01:08:07.805Z,97382.75
2022-12-14T01:10:38.056Z,97384.38
2022-12-14T01:13:04.690Z,97378.91
2022-12-14T01:15:31.348Z,97383.84
2022-12-14T01:17:57.964Z,97385.09
2022-12-14T01:20:24.653Z,97385.78
2022-12-14T01:22:55.478Z,97388.34
2022-12-14T01:25:22.398Z,97389.16
2022-12-14T01:27:50.373Z,97397.19
2022-12-14T01:30:19.418Z,97393.94
2022-12-14T01:32:47.026Z,97398.88
2022-12-14T01:35:14.194Z,97403.88
2022-12-14T01:37:40.853Z,97396.81
2022-12-14T01:40:08.242Z,97406.16
2022-12-14T01:42:36.224Z,97401.69
2022-12-14T01:45:05.151Z,97394.75
2022-12-14T01:47:40.341Z,97390.47
2022-12-14T01:50:16.718Z,97386.03
2022-12-14T01:52:45.164Z,97390.69
2022-12-14T01:55:12.850Z,97398.34
2022-12-14T01:57:45.048Z,97406.69
2022-12-14T02:00:14.366Z,97411.16
2022-12-14T02:02:46.350Z,97416.47
2022-12-14T02:05:14.148Z,97407.72
2022-12-14T02:07:43.331Z,97386.28
2022-12-14T02:10:16.584Z,97401.31
2022-12-14T02:12:48.590Z,97398.41
2022-12-14T02:15:16.557Z,97398.00
2022-12-14T02:17:45.105Z,97389.00
2022-12-14T02:20:14.261Z,97394.00
2022-12-14T02:23:08.664Z,97382.75
2022-12-14T02:25:36.311Z,97381.63
2022-12-14T02:28:02.926Z,97378.25
2022-12-14T02:30:35.076Z,97361.78
2022-12-14T02:33:17.630Z,97347.00
2022-12-14T02:35:51.210Z,97345.22
2022-12-14T02:38:31.787Z,97344.09
2022-12-14T02:41:13.760Z,97341.25
2022-12-14T02:43:42.472Z,97346.75
2022-12-14T02:46:20.501Z,97345.41
2022-12-14T02:48:58.918Z,97351.25
2022-12-14T02:51:45.644Z,97341.88
2022-12-14T02:54:20.868Z,97350.06
2022-12-14T02:56:54.170Z,97343.13
2022-12-14T02:59:23.300Z,97342.03
2022-12-14T03:01:52.186Z,97327.50
2022-12-14T03:04:19.226Z,97326.88
2022-12-14T03:07:02.784Z,97321.22
2022-12-14T03:09:31.577Z,97318.50
2022-12-14T03:12:07.197Z,97319.13
2022-12-14T03:14:34.035Z,97323.66
2022-12-14T03:17:07.691Z,97328.81
2022-12-14T03:19:38.959Z,97336.25
2022-12-14T03:22:17.224Z,97338.88
2022-12-14T03:24:52.424Z,97333.22
2022-12-14T03:27:34.487Z,97341.63
2022-12-14T03:30:08.408Z,97351.16
2022-12-14T03:32:40.590Z,97352.13
2022-12-14T03:35:07.652Z,97352.34
2022-12-14T03:37:35.319Z,97349.09
2022-12-14T03:40:02.032Z,97340.09
2022-12-14T03:42:32.882Z,97326.81
2022-12-14T03:45:10.155Z,97319.22
2022-12-14T03:48:04.542Z,97298.88
2022-12-14T03:50:41.114Z,97290.97
2022-12-14T03:53:14.622Z,97312.44
2022-12-14T03:56:04.701Z,97289.81
2022-12-14T03:59:01.944Z,97284.34
2022-12-14T04:01:59.400Z,97290.16
2022-12-14T04:04:30.838Z,97284.03
2022-12-14T04:07:15.021Z,97278.72
2022-12-14T04:09:59.993Z,97296.34
2022-12-14T04:12:51.681Z,97297.78
2022-12-14T04:15:39.988Z,97298.25
2022-12-14T04:18:26.891Z,97298.56
2022-12-14T04:21:03.783Z,97294.19
2022-12-14T04:23:54.345Z,97298.88
2022-12-14T04:26:27.546Z,97296.31
2022-12-14T04:29:14.989Z,97284.03
2022-12-14T04:31:49.121Z,97293.56
2022-12-14T04:34:20.087Z,97293.09
2022-12-14T04:36:51.855Z,97290.31
2022-12-14T04:39:27.209Z,97294.34
2022-12-14T04:41:56.626Z,97291.97
2022-12-14T04:44:29.197Z,97297.97
2022-12-14T04:46:57.908Z,97291.81
2022-12-14T04:49:42.735Z,97293.28
2022-12-14T04:52:18.208Z,97287.69
2022-12-14T04:54:52.817Z,97275.88
2022-12-14T04:57:31.854Z,97269.75
2022-12-14T05:00:01.565Z,97271.22
2022-12-14T05:02:44.463Z,97272.81
2022-12-14T05:05:17.159Z,97275.28
2022-12-14T05:07:53.572Z,97252.81
2022-12-14T05:10:26.087Z,97257.81
2022-12-14T05:13:07.913Z,97255.25
2022-12-14T05:15:42.079Z,97258.63
2022-12-14T05:18:09.204Z,97259.97
2022-12-14T05:20:35.887Z,97227.34
2022-12-14T05:23:02.521Z,97221.22
2022-12-14T05:25:29.283Z,97223.47
2022-12-14T05:27:56.414Z,97209.44
2022-12-14T05:30:23.457Z,97195.38
2022-12-14T05:32:50.285Z,97211.50
2022-12-14T05:35:16.964Z,97213.59
2022-12-14T05:37:43.641Z,97224.75
2022-12-14T05:40:11.174Z,97232.50
2022-12-14T05:42:42.759Z,97237.34
2022-12-14T05:45:12.984Z,97228.66
2022-12-14T05:47:39.916Z,97231.56
2022-12-14T05:50:08.023Z,97231.41
2022-12-14T05:52:35.168Z,97238.22
2022-12-14T05:55:04.535Z,97236.91
2022-12-14T05:57:32.167Z,97237.53
2022-12-14T05:59:58.894Z,97230.44
2022-12-14T06:02:25.910Z,97219.00
2022-12-14T06:04:52.693Z,97222.53
2022-12-14T06:07:24.492Z,97217.53
2022-12-14T06:09:54.357Z,97220.91
2022-12-14T06:12:21.271Z,97228.31
2022-12-14T06:14:47.920Z,97229.63
2022-12-14T06:17:14.594Z,97232.25
2022-12-14T06:19:41.245Z,97216.75
2022-12-14T06:22:08.132Z,97225.16
2022-12-14T06:24:36.356Z,97214.34
2022-12-14T06:27:03.181Z,97208.34
2022-12-14T06:29:29.820Z,97205.13
2022-12-14T06:31:56.464Z,97204.34
2022-12-14T06:34:28.168Z,97203.03
2022-12-14T06:36:55.422Z,97207.06
2022-12-14T06:39:22.111Z,97200.31
2022-12-14T06:41:51.103Z,97206.28
2022-12-14T06:44:17.967Z,97206.28
2022-12-14T06:46:45.010Z,97202.56
2022-12-14T06:49:14.974Z,97204.34
2022-12-14T06:51:42.314Z,97205.94
2022-12-14T06:54:11.496Z,97199.66
2022-12-14T06:56:38.751Z,97204.53
2022-12-14T06:59:05.562Z,97201.94
2022-12-14T07:01:32.729Z,97206.13
2022-12-14T07:03:59.731Z,97202.75
2022-12-14T07:06:28.651Z,97212.13
2022-12-14T07:08:57.779Z,97209.38
2022-12-14T07:11:26.257Z,97203.88
2022-12-14T07:13:54.140Z,97207.13
2022-12-14T07:16:25.105Z,97203.06
2022-12-14T07:18:53.671Z,97194.81
2022-12-14T07:21:21.263Z,97191.78
2022-12-14T07:23:48.735Z,97191.28
2022-12-14T07:26:21.591Z,97192.28
2022-12-14T07:28:48.600Z,97193.88
2022-12-14T07:31:18.761Z,97191.44
2022-12-14T07:33:45.865Z,97189.69
2022-12-14T07:36:15.941Z,97186.28
2022-12-14T07:38:44.277Z,97185.00
2022-12-14T07:41:12.430Z,97185.66
2022-12-14T07:43:44.537Z,97191.44
2022-12-14T07:46:20.273Z,97191.94
2022-12-14T07:48:50.098Z,97177.56
2022-12-14T07:51:20.180Z,97181.75
2022-12-14T07:53:47.509Z,97183.56
2022-12-14T07:56:17.033Z,97178.03
2022-12-14T07:58:44.247Z,97187.75
2022-12-14T08:01:13.650Z,97180.47
2022-12-14T08:03:41.931Z,97178.53
2022-12-14T08:06:10.549Z,97167.84
2022-12-14T08:08:37.779Z,97155.41
2022-12-14T08:11:05.251Z,97153.63
2022-12-14T08:13:32.873Z,97159.44
2022-12-14T08:16:10.738Z,97152.66
2022-12-14T08:18:37.714Z,97143.59
2022-12-14T08:21:06.438Z,97143.28
2022-12-14T08:23:34.178Z,97138.09
2022-12-14T08:26:02.624Z,97139.69
2022-12-14T08:28:30.979Z,97142.16
2022-12-14T08:31:02.938Z,97143.44
2022-12-14T08:33:29.864Z,97140.69
2022-12-14T08:35:56.715Z,97145.50
2022-12-14T08:38:23.319Z,97155.56
2022-12-14T08:40:49.940Z,97157.16
2022-12-14T08:43:20.302Z,97159.25
2022-12-14T08:45:50.089Z,97158.28
2022-12-14T08:48:17.754Z,97154.72
2022-12-14T08:50:44.425Z,97153.44
2022-12-14T08:53:16.610Z,97134.63
2022-12-14T08:55:43.940Z,97140.47
2022-12-14T08:58:10.622Z,97140.78
2022-12-14T09:00:38.762Z,97143.81
2022-12-14T09:03:06.889Z,97135.91
2022-12-14T09:05:35.134Z,97138.16
2022-12-14T09:08:01.813Z,97140.91
2022-12-14T09:10:28.501Z,97148.00
2022-12-14T09:12:55.282Z,97134.56
2022-12-14T09:15:22.058Z,97132.59
2022-12-14T09:17:50.051Z,97132.59
2022-12-14T09:20:17.544Z,97134.22
2022-12-14T09:22:45.897Z,97134.81
2022-12-14T09:25:12.775Z,97125.44
2022-12-14T09:27:39.554Z,97122.50
2022-12-14T09:30:06.542Z,97116.28
2022-12-14T09:32:33.477Z,97111.59
2022-12-14T09:35:00.182Z,97106.47
2022-12-14T09:37:26.944Z,97095.50
2022-12-14T09:39:53.717Z,97098.69
2022-12-14T09:42:50.550Z,97089.56
2022-12-14T09:45:17.849Z,97089.28
2022-12-14T09:48:04.242Z,97084.03
2022-12-14T09:50:31.377Z,97080.28
2022-12-14T09:53:02.786Z,97080.94
2022-12-14T09:55:37.119Z,97082.88
2022-12-14T09:58:06.889Z,97075.97
2022-12-14T10:00:40.776Z,97070.16
2022-12-14T10:03:08.864Z,97053.44
2022-12-14T10:05:44.703Z,97044.69
2022-12-14T10:08:26.976Z,97035.66
2022-12-14T10:11:11.481Z,97026.22
2022-12-14T10:13:47.062Z,97022.91
2022-12-14T10:16:51.587Z,97018.53
2022-12-14T10:19:18.806Z,97016.66
2022-12-14T10:21:51.241Z,97016.56
2022-12-14T10:24:23.921Z,97023.34
2022-12-14T10:26:53.375Z,97014.31
2022-12-14T10:29:39.957Z,96997.25
2022-12-14T10:32:20.733Z,96991.41
2022-12-14T10:34:48.311Z,96996.22
2022-12-14T10:37:34.874Z,96986.88
2022-12-14T10:40:33.721Z,96994.75
2022-12-14T10:43:17.875Z,96990.03
2022-12-14T10:45:56.594Z,96986.44
2022-12-14T10:48:45.261Z,96974.69
2022-12-14T10:51:17.140Z,96961.63
2022-12-14T10:53:53.039Z,96968.81
2022-12-14T10:56:26.096Z,96960.53
2022-12-14T10:59:25.395Z,96941.28
2022-12-14T11:01:59.799Z,96933.44
2022-12-14T11:04:29.840Z,96914.44
2022-12-14T11:06:59.688Z,96908.44
2022-12-14T11:09:26.857Z,96903.81
2022-12-14T11:12:17.406Z,96895.16
2022-12-14T11:14:53.082Z,96878.25
2022-12-14T11:17:39.612Z,96857.81
2022-12-14T11:20:25.849Z,96857.72
2022-12-14T11:22:55.953Z,96864.31
2022-12-14T11:25:40.628Z,96861.44
2022-12-14T11:28:38.511Z,96860.88
2022-12-14T11:31:12.585Z,96853.25
2022-12-14T11:33:41.447Z,96841.22
2022-12-14T11:36:09.009Z,96841.44
2022-12-14T11:38:35.964Z,96855.63
2022-12-14T11:41:09.127Z,96855.81
2022-12-14T11:43:39.007Z,96866.41
2022-12-14T11:46:09.513Z,96863.38
2022-12-14T11:48:39.388Z,96849.19
2022-12-14T11:51:12.419Z,96835.41
2022-12-14T11:53:39.799Z,96823.16
2022-12-14T11:56:13.831Z,96824.72
2022-12-14T11:58:48.957Z,96814.53
2022-12-14T12:01:20.337Z,96815.31
2022-12-14T12:03:50.824Z,96818.34
2022-12-14T12:06:27.784Z,96809.97
2022-12-14T12:08:57.073Z,96799.25
2022-12-14T12:11:28.027Z,96782.81
2022-12-14T12:14:06.548Z,96782.09
2022-12-14T12:16:35.499Z,96782.84
2022-12-14T12:19:12.350Z,96784.50
2022-12-14T12:21:42.922Z,96791.66
2022-12-14T12:24:38.784Z,96767.84
2022-12-14T12:27:15.848Z,96780.44
2022-12-14T12:29:50.760Z,96780.81
2022-12-14T12:32:32.575Z,96783.63
2022-12-14T12:35:17.192Z,96786.28
2022-12-14T12:37:51.724Z,96764.19
2022-12-14T12:40:29.159Z,96756.56
2022-12-14T12:43:26.415Z,96754.97
2022-12-14T12:45:59.512Z,96751.97
2022-12-14T12:48:38.352Z,96748.41
2022-12-14T12:51:12.869Z,96757.19
2022-12-14T12:53:47.981Z,96752.41
2022-12-14T12:56:23.386Z,96756.84
2022-12-14T12:58:53.167Z,96737.09
2022-12-14T13:01:27.838Z,96737.09
2022-12-14T13:04:01.735Z,96738.44
2022-12-14T13:06:33.307Z,96742.78
2022-12-14T13:09:07.706Z,96749.59
2022-12-14T13:11:39.662Z,96754.59
2022-12-14T13:14:26.379Z,96754.81
2022-12-14T13:16:55.016Z,96755.22
2022-12-14T13:19:49.850Z,96758.81
2022-12-14T13:22:24.849Z,96770.41
2022-12-14T13:24:58.966Z,96772.81
2022-12-14T13:28:01.645Z,96778.03
2022-12-14T13:30:46.841Z,96759.19
2022-12-14T13:33:29.916Z,96755.19
2022-12-14T13:35:57.552Z,96761.38
2022-12-14T13:38:45.833Z,96773.84
2022-12-14T13:41:13.490Z,96774.84
2022-12-14T13:43:55.439Z,96776.19
2022-12-14T13:46:26.063Z,96779.69
2022-12-14T13:48:58.793Z,96749.25
2022-12-14T13:51:31.074Z,96753.84
2022-12-14T13:53:59.617Z,96752.81
2022-12-14T13:56:33.311Z,96747.00
2022-12-14T13:59:03.047Z,96747.22
2022-12-14T14:01:49.711Z,96708.41
2022-12-14T14:04:18.582Z,96695.22
2022-12-14T14:06:48.411Z,96699.78
2022-12-14T14:09:31.328Z,96702.38
2022-12-14T14:12:17.870Z,96730.97
2022-12-14T14:14:52.068Z,96755.50
2022-12-14T14:17:36.737Z,96773.34
2022-12-14T14:20:23.800Z,96751.94
2022-12-14T14:23:25.560Z,96742.50
2022-12-14T14:26:10.257Z,96744.09
2022-12-14T14:28:38.151Z,96748.94
2022-12-14T14:31:05.557Z,96746.34
2022-12-14T14:33:46.170Z,96763.88
2022-12-14T14:36:23.293Z,96769.25
2022-12-14T14:38:51.024Z,96776.44
2022-12-14T14:41:27.062Z,96764.03
2022-12-14T14:43:58.439Z,96755.22
2022-12-14T14:46:42.764Z,96758.84
2022-12-14T14:49:24.623Z,96749.88
2022-12-14T14:51:51.372Z,96764.84
2022-12-14T14:54:44.773Z,96770.50
2022-12-14T14:57:33.344Z,96738.06
2022-12-14T15:00:02.629Z,96751.06
2022-12-14T15:02:41.200Z,96735.44
2022-12-14T15:05:41.500Z,96710.03
2022-12-14T15:08:05.381Z,96688.88
2022-12-14T15:10:38.849Z,96699.84
2022-12-14T15:13:16.901Z,96706.66
2022-12-14T15:15:46.627Z,96710.44
2022-12-14T15:18:20.579Z,96722.25
2022-12-14T15:21:07.969Z,96718.84
2022-12-14T15:23:39.693Z,96716.25
2022-12-14T15:26:25.298Z,96721.28
2022-12-14T15:28:58.292Z,96732.09
2022-12-14T15:31:41.870Z,96732.88
2022-12-14T15:34:16.454Z,96733.31
2022-12-14T15:36:44.222Z,96722.91
2022-12-14T15:39:27.919Z,96718.69
2022-12-14T15:42:05.469Z,96728.88
2022-12-14T15:44:32.217Z,96731.88
2022-12-14T15:47:02.124Z,96725.66
2022-12-14T15:49:28.981Z,96730.06
2022-12-14T15:51:58.179Z,96729.28
2022-12-14T15:54:26.157Z,96738.06
2022-12-14T15:56:57.472Z,96737.69
2022-12-14T15:59:31.231Z,96737.88
2022-12-14T16:02:07.668Z,96742.50
2022-12-14T16:04:37.085Z,96736.47
2022-12-14T16:07:13.516Z,96751.31
2022-12-14T16:09:41.965Z,96743.06
2022-12-14T16:12:28.618Z,96761.72
2022-12-14T16:14:58.317Z,96755.53
2022-12-14T16:17:40.447Z,96766.50
2022-12-14T16:20:08.145Z,96769.31
2022-12-14T16:22:39.269Z,96767.53
2022-12-14T16:25:05.890Z,96756.53
2022-12-14T16:27:36.137Z,96780.34
2022-12-14T16:30:26.584Z,96758.91
2022-12-14T16:33:20.203Z,96763.31
2022-12-14T16:36:00.907Z,96762.50
2022-12-14T16:38:28.259Z,96766.28
2022-12-14T16:40:58.170Z,96765.28
2022-12-14T16:43:35.595Z,96754.28
2022-12-14T16:46:03.452Z,96758.28
2022-12-14T16:48:32.358Z,96745.28
2022-12-14T16:51:50.881Z,96754.09
2022-12-14T16:54:25.392Z,96744.50
2022-12-14T16:56:57.174Z,96750.13
2022-12-14T16:59:45.986Z,96753.72
2022-12-14T17:02:30.553Z,96753.50
2022-12-14T17:05:00.102Z,96752.53
2022-12-14T17:07:30.230Z,96758.72
2022-12-14T17:09:57.203Z,96768.31
2022-12-14T17:12:26.135Z,96771.53
2022-12-14T17:14:53.937Z,96779.31
2022-12-14T17:17:28.955Z,96780.72
2022-12-14T17:19:55.638Z,96787.53
2022-12-14T17:22:26.801Z,96786.75
2022-12-14T17:24:54.005Z,96805.34
2022-12-14T17:27:22.647Z,96793.38
2022-12-14T17:29:49.689Z,96815.22
2022-12-14T17:32:17.211Z,96811.63
2022-12-14T17:34:45.557Z,96840.22
2022-12-14T17:37:17.413Z,96842.00
2022-12-14T17:39:44.440Z,96848.19
2022-12-14T17:42:14.148Z,96844.63
2022-12-14T17:44:44.108Z,96858.44
2022-12-14T17:47:14.051Z,96863.03
2022-12-14T17:49:42.329Z,96859.78
2022-12-14T17:52:18.319Z,96841.03
2022-12-14T17:54:45.554Z,96840.22
2022-12-14T17:57:17.780Z,96844.19
2022-12-14T17:59:47.504Z,96843.59
2022-12-14T18:02:33.048Z,96837.75
2022-12-14T18:04:59.955Z,96842.59
2022-12-14T18:07:26.708Z,96838.97
2022-12-14T18:09:54.422Z,96839.81
2022-12-14T18:12:23.421Z,96851.00
2022-12-14T18:14:50.415Z,96852.63
2022-12-14T18:17:17.060Z,96853.59
2022-12-14T18:19:43.685Z,96871.63
2022-12-14T18:22:11.042Z,96866.25
2022-12-14T18:24:37.749Z,96865.63
2022-12-14T18:27:04.386Z,96865.00
2022-12-14T18:29:31.018Z,96864.44
2022-12-14T18:31:57.756Z,96858.66
2022-12-14T18:34:24.481Z,96869.25
2022-12-14T18:36:51.200Z,96869.63
2022-12-14T18:39:18.329Z,96870.81
2022-12-14T18:41:44.995Z,96869.44
2022-12-14T18:44:11.657Z,96865.63
2022-12-14T18:46:39.447Z,96870.81
2022-12-14T18:49:06.134Z,96874.22
2022-12-14T18:51:32.844Z,96882.22
2022-12-14T18:54:00.633Z,96875.84
2022-12-14T18:56:29.273Z,96875.84
2022-12-14T18:58:56.332Z,96880.25
2022-12-14T19:01:24.978Z,96887.06
2022-12-14T19:03:51.970Z,96878.44
2022-12-14T19:09:08.265Z,96877.66
2022-12-14T19:11:40.153Z,96877.03
2022-12-14T19:14:07.038Z,96874.66
2022-12-14T19:16:34.202Z,96882.66
2022-12-14T19:19:01.011Z,96890.47
2022-12-14T19:21:29.723Z,96899.88
2022-12-14T19:23:57.366Z,96908.66
2022-12-14T19:26:24.176Z,96904.91
2022-12-14T19:28:50.830Z,96910.31
2022-12-14T19:31:20.883Z,96906.84
2022-12-14T19:33:47.529Z,96908.47
2022-12-14T19:36:14.207Z,96912.28
2022-12-14T19:38:40.975Z,96913.56
2022-12-14T19:41:11.401Z,96915.03
2022-12-14T19:43:38.388Z,96915.03
2022-12-14T19:46:07.139Z,96920.41
2022-12-14T19:48:38.222Z,96914.28
2022-12-14T19:51:07.780Z,96911.44
2022-12-14T19:53:35.062Z,96919.19
2022-12-14T19:56:02.108Z,96914.72
2022-12-14T19:58:29.588Z,96921.00
2022-12-14T20:00:56.678Z,96915.56
2022-12-14T20:03:23.863Z,96922.34
2022-12-14T20:05:53.807Z,96926.41
2022-12-14T20:08:21.300Z,96930.16
2022-12-14T20:10:48.966Z,96925.53
2022-12-14T20:13:16.013Z,96931.13
2022-12-14T20:15:48.973Z,96930.31
2022-12-14T20:18:15.959Z,96939.53
2022-12-14T20:20:42.919Z,96938.75
2022-12-14T20:23:10.012Z,96943.50
2022-12-14T20:25:36.638Z,96945.75
2022-12-14T20:28:03.632Z,96945.13
2022-12-14T20:30:30.742Z,96948.38
2022-12-14T20:32:57.637Z,96952.59
2022-12-14T20:35:24.263Z,96958.63
2022-12-14T20:37:53.805Z,96962.59
2022-12-14T20:40:20.440Z,96955.03
2022-12-14T20:42:47.186Z,96957.94
2022-12-14T20:45:13.798Z,96960.13
2022-12-14T20:47:40.455Z,96963.72
2022-12-14T20:50:07.135Z,96958.34
2022-12-14T20:52:33.794Z,96955.78
2022-12-14T20:55:00.435Z,96952.97
2022-12-14T20:57:28.401Z,96951.56
2022-12-14T20:59:54.988Z,96958.06
2022-12-14T21:02:23.560Z,96955.47
2022-12-14T21:04:50.457Z,96962.28
2022-12-14T21:07:21.329Z,96948.88
2022-12-14T21:09:51.016Z,96956.56
2022-12-14T21:12:20.780Z,96963.66
2022-12-14T21:14:52.509Z,96960.28
2022-12-14T21:17:24.849Z,96961.13
2022-12-14T21:19:51.964Z,96968.59
2022-12-14T21:22:22.779Z,96966.38
2022-12-14T21:25:06.632Z,96969.53
2022-12-14T21:27:38.832Z,96960.31
2022-12-14T21:30:07.507Z,96956.44
2022-12-14T21:32:36.915Z,96964.19
2022-12-14T21:35:04.447Z,96969.22
2022-12-14T21:37:31.136Z,96978.66
2022-12-14T21:39:57.867Z,96979.63
2022-12-14T21:42:24.649Z,96981.81
2022-12-14T21:44:52.842Z,96988.38
2022-12-14T21:47:27.003Z,96981.31
2022-12-14T21:49:54.377Z,96991.13
2022-12-14T21:52:24.102Z,96993.66
2022-12-14T21:54:50.834Z,96992.53
2022-12-14T21:57:35.314Z,96997.09
2022-12-14T22:00:02.535Z,96998.28
2022-12-14T22:02:29.515Z,97005.38
2022-12-14T22:04:56.453Z,97011.03
2022-12-14T22:07:25.603Z,97014.38
2022-12-14T22:09:52.292Z,97017.94
2022-12-14T22:12:19.132Z,97018.94
2022-12-14T22:14:45.876Z,97021.06
2022-12-14T22:17:14.562Z,97025.94
2022-12-14T22:19:41.360Z,97038.06
2022-12-14T22:22:13.922Z,97036.16
2022-12-14T22:24:40.998Z,97026.97
2022-12-14T22:27:08.526Z,97025.78
2022-12-14T22:29:35.112Z,97026.19
2022-12-14T22:32:01.860Z,97033.78
2022-12-14T22:34:28.540Z,97039.88
2022-12-14T22:36:55.202Z,97044.41
2022-12-14T22:39:21.859Z,97043.38
2022-12-14T22:41:49.641Z,97048.63
2022-12-14T22:44:16.293Z,97052.63
2022-12-14T22:46:42.955Z,97057.41
2022-12-14T22:49:15.301Z,97052.41
2022-12-14T22:51:41.933Z,97054.72
2022-12-14T22:54:08.598Z,97048.66
2022-12-14T22:56:43.600Z,97045.03
2022-12-14T22:59:18.452Z,97049.50
2022-12-14T23:01:49.891Z,97068.53
2022-12-14T23:04:17.958Z,97063.81
2022-12-14T23:06:45.292Z,97066.59
2022-12-14T23:09:27.145Z,97058.59
2022-12-14T23:12:11.666Z,97058.34
2022-12-14T23:14:54.537Z,97052.91
2022-12-14T23:17:36.861Z,97075.47
2022-12-14T23:20:19.622Z,97071.00
2022-12-14T23:23:01.733Z,97077.75
2022-12-14T23:25:43.770Z,97079.22
2022-12-14T23:28:26.330Z,97077.69
2022-12-14T23:31:08.485Z,97083.16
2022-12-14T23:33:53.749Z,97076.41
2022-12-14T23:36:37.308Z,97087.06
2022-12-14T23:39:19.627Z,97075.72
2022-12-14T23:42:01.710Z,97081.06
2022-12-14T23:44:43.738Z,97085.31
2022-12-14T23:47:25.804Z,97080.94
2022-12-14T23:50:07.808Z,97083.28
2022-12-14T23:52:49.880Z,97076.41
2022-12-14T23:55:31.896Z,97089.47
2022-12-14T23:58:14.404Z,97094.44
